createdAt,value
2022-12-22T00:00:43.264Z,7.63
2022-12-22T00:02:06.052Z,7.71
2022-12-22T00:03:32.184Z,7.56
2022-12-22T00:04:52.411Z,7.63
2022-12-22T00:06:12.536Z,7.55
2022-12-22T00:07:32.617Z,7.73
2022-12-22T00:08:53.958Z,7.89
2022-12-22T00:10:13.990Z,7.78
2022-12-22T00:11:34.215Z,7.91
2022-12-22T00:12:54.936Z,7.82
2022-12-22T00:14:15.609Z,7.88
2022-12-22T00:15:36.870Z,7.61
2022-12-22T00:16:57.564Z,7.76
2022-12-22T00:18:18.303Z,7.60
2022-12-22T00:19:39.011Z,7.74
2022-12-22T00:20:59.137Z,7.99
2022-12-22T00:22:20.223Z,7.63
2022-12-22T00:23:40.435Z,7.62
2022-12-22T00:25:02.051Z,7.41
2022-12-22T00:26:25.301Z,7.74
2022-12-22T00:27:48.544Z,7.96
2022-12-22T00:29:08.570Z,7.68
2022-12-22T00:30:31.892Z,7.78
2022-12-22T00:31:51.955Z,7.94
2022-12-22T00:33:12.472Z,7.99
2022-12-22T00:34:35.666Z,8.08
2022-12-22T00:35:55.973Z,8.14
2022-12-22T00:37:16.090Z,8.14
2022-12-22T00:38:38.935Z,7.96
2022-12-22T00:39:59.245Z,7.80
2022-12-22T00:41:20.971Z,8.01
2022-12-22T00:42:40.822Z,8.15
2022-12-22T00:44:00.670Z,8.22
2022-12-22T00:45:20.409Z,8.20
2022-12-22T00:46:40.407Z,8.29
2022-12-22T00:48:02.101Z,7.97
2022-12-22T00:49:22.287Z,7.81
2022-12-22T00:50:48.350Z,8.02
2022-12-22T00:52:08.611Z,8.15
2022-12-22T00:53:28.665Z,8.25
2022-12-22T00:54:48.965Z,8.27
2022-12-22T00:56:09.148Z,8.02
2022-12-22T00:57:35.202Z,8.20
2022-12-22T00:58:55.476Z,8.04
2022-12-22T01:00:16.292Z,7.99
2022-12-22T01:01:36.807Z,7.85
2022-12-22T01:02:56.874Z,8.15
2022-12-22T01:04:17.056Z,8.14
2022-12-22T01:05:37.343Z,8.22
2022-12-22T01:06:57.364Z,8.43
2022-12-22T01:08:20.455Z,8.13
2022-12-22T01:09:41.841Z,8.38
2022-12-22T01:11:04.318Z,8.16
2022-12-22T01:12:29.932Z,7.99
2022-12-22T01:13:51.607Z,8.01
2022-12-22T01:15:11.514Z,7.97
2022-12-22T01:16:32.202Z,8.15
2022-12-22T01:17:52.357Z,7.95
2022-12-22T01:19:12.678Z,8.14
2022-12-22T01:20:33.014Z,8.26
2022-12-22T01:21:53.693Z,8.32
2022-12-22T01:23:14.048Z,8.29
2022-12-22T01:24:36.397Z,8.47
2022-12-22T01:25:56.523Z,8.74
2022-12-22T01:27:16.534Z,8.74
2022-12-22T01:28:36.241Z,8.70
2022-12-22T01:29:57.969Z,8.66
2022-12-22T01:31:34.527Z,8.66
2022-12-22T01:32:54.792Z,8.42
2022-12-22T01:34:14.957Z,8.43
2022-12-22T01:35:38.715Z,8.67
2022-12-22T01:36:59.039Z,8.63
2022-12-22T01:38:18.950Z,8.74
2022-12-22T01:39:38.819Z,8.86
2022-12-22T01:40:59.170Z,9.02
2022-12-22T01:42:19.555Z,9.00
2022-12-22T01:43:43.860Z,9.06
2022-12-22T01:45:05.561Z,9.01
2022-12-22T01:46:39.784Z,9.14
2022-12-22T01:48:02.859Z,8.87
2022-12-22T01:49:23.646Z,8.55
2022-12-22T01:50:47.508Z,8.65
2022-12-22T01:52:07.986Z,8.55
2022-12-22T01:53:33.330Z,8.80
2022-12-22T01:54:53.607Z,8.63
2022-12-22T01:56:14.983Z,8.80
2022-12-22T01:57:35.168Z,8.76
2022-12-22T01:59:00.037Z,8.65
2022-12-22T02:00:22.628Z,8.78
2022-12-22T02:01:43.111Z,8.96
2022-12-22T02:03:03.382Z,8.71
2022-12-22T02:04:24.618Z,8.79
2022-12-22T02:05:44.950Z,8.89
2022-12-22T02:07:07.992Z,8.91
2022-12-22T02:08:37.483Z,8.72
2022-12-22T02:10:08.474Z,8.73
2022-12-22T02:11:43.806Z,8.88
2022-12-22T02:13:12.505Z,8.75
2022-12-22T02:14:45.249Z,8.83
2022-12-22T02:16:11.435Z,8.92
2022-12-22T02:17:39.301Z,8.35
2022-12-22T02:19:05.555Z,8.44
2022-12-22T02:20:38.711Z,8.31
2022-12-22T02:22:06.830Z,8.40
2022-12-22T02:23:35.491Z,8.46
2022-12-22T02:25:00.502Z,8.71
2022-12-22T02:26:37.719Z,8.89
2022-12-22T02:27:59.975Z,9.17
2022-12-22T02:29:23.359Z,9.15
2022-12-22T02:30:45.160Z,8.75
2022-12-22T02:32:06.542Z,8.95
2022-12-22T02:33:27.664Z,8.76
2022-12-22T02:34:47.965Z,8.85
2022-12-22T02:36:20.890Z,8.98
2022-12-22T02:37:50.368Z,9.14
2022-12-22T02:39:19.845Z,9.05
2022-12-22T02:40:49.965Z,8.97
2022-12-22T02:42:22.336Z,9.16
2022-12-22T02:43:58.356Z,9.24
2022-12-22T02:45:32.279Z,9.23
2022-12-22T02:46:59.639Z,9.11
2022-12-22T02:48:23.943Z,9.21
2022-12-22T02:49:48.796Z,9.42
2022-12-22T02:51:14.251Z,9.60
2022-12-22T02:52:38.560Z,9.48
2022-12-22T02:54:01.803Z,9.57
2022-12-22T02:55:23.014Z,9.56
2022-12-22T02:56:43.441Z,9.55
2022-12-22T02:58:04.757Z,9.43
2022-12-22T02:59:24.712Z,9.32
2022-12-22T03:00:44.755Z,9.46
2022-12-22T03:02:05.531Z,9.56
2022-12-22T03:03:28.578Z,9.59
2022-12-22T03:04:48.784Z,9.64
2022-12-22T03:06:09.200Z,9.85
2022-12-22T03:07:29.578Z,9.81
2022-12-22T03:08:49.952Z,9.78
2022-12-22T03:10:10.064Z,9.69
2022-12-22T03:11:30.084Z,9.78
2022-12-22T03:12:53.129Z,9.65
2022-12-22T03:14:14.503Z,9.82
2022-12-22T03:15:34.573Z,9.80
2022-12-22T03:16:54.395Z,9.88
2022-12-22T03:18:19.847Z,9.91
2022-12-22T03:19:39.727Z,9.89
2022-12-22T03:21:00.187Z,9.83
2022-12-22T03:22:19.972Z,9.73
2022-12-22T03:23:39.644Z,9.78
2022-12-22T03:24:59.933Z,9.76
2022-12-22T03:26:02.556Z,9.68
2022-12-22T03:27:04.134Z,9.75
2022-12-22T03:28:09.635Z,9.72
2022-12-22T03:29:12.573Z,9.76
2022-12-22T03:30:15.236Z,9.76
2022-12-22T03:31:17.031Z,9.77
2022-12-22T03:32:20.330Z,9.82
2022-12-22T03:33:22.131Z,9.73
2022-12-22T03:34:24.850Z,9.77
2022-12-22T03:35:29.079Z,9.75
2022-12-22T03:36:31.643Z,9.68
2022-12-22T03:37:33.162Z,9.72
2022-12-22T03:38:35.617Z,9.68
2022-12-22T03:39:37.137Z,9.64
2022-12-22T03:40:39.584Z,9.74
2022-12-22T03:41:59.816Z,9.77
2022-12-22T03:43:19.742Z,9.73
2022-12-22T03:44:41.416Z,9.94
2022-12-22T03:46:03.732Z,10.12
2022-12-22T03:47:11.448Z,10.14
2022-12-22T03:48:13.067Z,9.99
2022-12-22T03:49:15.500Z,9.98
2022-12-22T03:50:20.365Z,9.83
2022-12-22T03:51:22.884Z,9.78
2022-12-22T03:52:24.434Z,9.66
2022-12-22T03:53:26.941Z,9.74
2022-12-22T03:54:28.469Z,9.68
2022-12-22T03:55:31.093Z,9.74
2022-12-22T03:56:33.027Z,9.74
2022-12-22T03:57:35.669Z,9.81
2022-12-22T03:58:37.158Z,9.96
2022-12-22T03:59:41.070Z,10.07
2022-12-22T04:00:42.656Z,10.01
2022-12-22T04:01:47.849Z,10.06
2022-12-22T04:02:49.652Z,10.26
2022-12-22T04:03:52.144Z,10.12
2022-12-22T04:04:53.667Z,10.08
2022-12-22T04:05:56.179Z,10.13
2022-12-22T04:06:57.807Z,10.11
2022-12-22T04:08:00.275Z,10.15
2022-12-22T04:09:02.000Z,10.05
2022-12-22T04:10:25.794Z,10.01
2022-12-22T04:11:45.865Z,9.97
2022-12-22T04:12:57.082Z,10.15
2022-12-22T04:13:58.837Z,10.14
2022-12-22T04:15:02.677Z,10.20
2022-12-22T04:16:04.580Z,10.21
2022-12-22T04:17:08.337Z,10.10
2022-12-22T04:18:09.874Z,10.07
2022-12-22T04:19:12.516Z,10.22
2022-12-22T04:20:14.225Z,10.21
2022-12-22T04:21:17.099Z,10.25
2022-12-22T04:22:19.534Z,10.04
2022-12-22T04:23:21.014Z,9.85
2022-12-22T04:24:23.450Z,9.98
2022-12-22T04:25:28.507Z,9.97
2022-12-22T04:26:31.420Z,10.02
2022-12-22T04:27:33.208Z,10.02
2022-12-22T04:28:35.717Z,9.96
2022-12-22T04:29:37.242Z,9.97
2022-12-22T04:30:41.033Z,9.97
2022-12-22T04:31:43.858Z,10.14
2022-12-22T04:32:46.389Z,10.13
2022-12-22T04:33:48.041Z,9.98
2022-12-22T04:34:50.429Z,10.13
2022-12-22T04:35:54.004Z,10.12
2022-12-22T04:37:02.341Z,10.02
2022-12-22T04:38:08.776Z,9.97
2022-12-22T04:39:11.314Z,10.12
2022-12-22T04:40:13.372Z,10.20
2022-12-22T04:41:16.169Z,10.25
2022-12-22T04:42:17.711Z,10.20
2022-12-22T04:43:21.927Z,10.05
2022-12-22T04:44:23.361Z,10.09
2022-12-22T04:45:25.893Z,10.17
2022-12-22T04:46:28.849Z,10.20
2022-12-22T04:47:31.267Z,10.17
2022-12-22T04:48:35.653Z,10.05
2022-12-22T04:49:38.121Z,10.24
2022-12-22T04:50:39.660Z,10.32
2022-12-22T04:51:42.198Z,10.44
2022-12-22T04:52:43.706Z,10.42
2022-12-22T04:53:47.716Z,10.47
2022-12-22T04:54:49.242Z,10.47
2022-12-22T04:55:56.275Z,10.34
2022-12-22T04:56:57.855Z,10.46
2022-12-22T04:58:00.353Z,10.30
2022-12-22T04:59:04.621Z,10.45
2022-12-22T05:00:08.651Z,10.45
2022-12-22T05:01:12.462Z,10.54
2022-12-22T05:02:16.286Z,10.44
2022-12-22T05:03:17.911Z,10.65
2022-12-22T05:04:23.825Z,10.45
2022-12-22T05:05:25.627Z,10.26
2022-12-22T05:06:28.200Z,10.27
2022-12-22T05:07:29.732Z,10.40
2022-12-22T05:08:32.242Z,10.32
2022-12-22T05:09:34.312Z,10.45
2022-12-22T05:10:36.891Z,10.50
2022-12-22T05:11:38.451Z,10.55
2022-12-22T05:12:57.972Z,10.48
2022-12-22T05:14:06.786Z,10.39
2022-12-22T05:15:09.435Z,10.54
2022-12-22T05:16:14.054Z,10.72
2022-12-22T05:17:19.998Z,10.43
2022-12-22T05:18:25.549Z,10.52
2022-12-22T05:19:30.712Z,10.57
2022-12-22T05:20:35.998Z,10.45
2022-12-22T05:21:40.516Z,10.59
2022-12-22T05:22:42.979Z,10.04
2022-12-22T05:23:45.236Z,10.19
2022-12-22T05:24:47.695Z,10.16
2022-12-22T05:25:49.211Z,10.17
2022-12-22T05:26:51.615Z,10.13
2022-12-22T05:27:53.150Z,10.32
2022-12-22T05:28:55.639Z,10.21
2022-12-22T05:29:57.110Z,10.21
2022-12-22T05:31:05.185Z,10.13
2022-12-22T05:32:06.727Z,10.15
2022-12-22T05:33:10.480Z,9.98
2022-12-22T05:34:12.015Z,10.03
2022-12-22T05:35:14.729Z,10.02
2022-12-22T05:36:17.869Z,10.03
2022-12-22T05:37:20.282Z,10.14
2022-12-22T05:38:21.785Z,9.96
2022-12-22T05:39:24.215Z,9.96
2022-12-22T05:40:25.704Z,10.01
2022-12-22T05:41:28.127Z,10.04
2022-12-22T05:42:38.507Z,10.08
2022-12-22T05:43:41.088Z,10.16
2022-12-22T05:44:42.589Z,10.04
2022-12-22T05:45:48.029Z,9.86
2022-12-22T05:46:50.544Z,9.87
2022-12-22T05:47:53.953Z,9.99
2022-12-22T05:48:56.885Z,10.20
2022-12-22T05:49:59.346Z,10.19
2022-12-22T05:51:03.935Z,10.25
2022-12-22T05:52:06.344Z,9.98
2022-12-22T05:53:08.398Z,9.88
2022-12-22T05:54:10.998Z,9.90
2022-12-22T05:55:13.853Z,10.01
2022-12-22T05:56:17.949Z,10.00
2022-12-22T05:57:19.430Z,9.89
2022-12-22T05:58:22.128Z,9.89
2022-12-22T05:59:24.536Z,9.98
2022-12-22T06:00:26.218Z,9.79
2022-12-22T06:01:28.783Z,9.78
2022-12-22T06:02:30.420Z,9.83
2022-12-22T06:03:33.057Z,9.96
2022-12-22T06:04:35.922Z,9.93
2022-12-22T06:05:38.351Z,9.83
2022-12-22T06:06:41.892Z,9.72
2022-12-22T06:07:44.406Z,9.71
2022-12-22T06:08:45.896Z,9.71
2022-12-22T06:09:48.485Z,9.80
2022-12-22T06:10:49.985Z,9.90
2022-12-22T06:11:52.439Z,9.99
2022-12-22T06:12:53.959Z,9.89
2022-12-22T06:13:56.485Z,9.93
2022-12-22T06:14:58.007Z,9.98
2022-12-22T06:16:02.191Z,9.87
2022-12-22T06:17:03.734Z,9.99
2022-12-22T06:18:06.252Z,9.96
2022-12-22T06:19:07.724Z,9.95
2022-12-22T06:20:12.924Z,9.93
2022-12-22T06:21:20.106Z,10.00
2022-12-22T06:22:22.545Z,9.88
2022-12-22T06:23:24.061Z,9.93
2022-12-22T06:24:26.560Z,9.77
2022-12-22T06:25:28.980Z,9.67
2022-12-22T06:26:31.557Z,9.69
2022-12-22T06:27:34.004Z,9.70
2022-12-22T06:28:35.491Z,9.60
2022-12-22T06:29:38.134Z,9.59
2022-12-22T06:30:42.311Z,9.67
2022-12-22T06:31:45.017Z,9.73
2022-12-22T06:32:46.585Z,9.71
2022-12-22T06:33:49.059Z,9.78
2022-12-22T06:34:50.776Z,9.74
2022-12-22T06:35:58.954Z,9.70
2022-12-22T06:37:00.981Z,9.79
2022-12-22T06:38:03.455Z,9.82
2022-12-22T06:39:05.121Z,9.76
2022-12-22T06:40:09.430Z,9.77
2022-12-22T06:41:10.981Z,9.82
2022-12-22T06:42:31.393Z,9.59
2022-12-22T06:43:33.798Z,9.64
2022-12-22T06:44:35.265Z,9.76
2022-12-22T06:45:39.234Z,9.61
2022-12-22T06:46:40.791Z,9.78
2022-12-22T06:47:43.270Z,9.81
2022-12-22T06:48:44.836Z,9.84
2022-12-22T06:49:47.221Z,9.84
2022-12-22T06:50:48.961Z,9.85
2022-12-22T06:51:52.701Z,9.75
2022-12-22T06:52:54.213Z,9.63
2022-12-22T06:53:56.640Z,9.79
2022-12-22T06:54:58.104Z,9.72
2022-12-22T06:56:00.557Z,9.81
2022-12-22T06:57:02.118Z,9.89
2022-12-22T06:58:04.843Z,10.08
2022-12-22T06:59:07.377Z,10.00
2022-12-22T07:00:13.097Z,9.90
2022-12-22T07:01:15.611Z,9.90
2022-12-22T07:02:17.387Z,9.98
2022-12-22T07:03:20.188Z,10.03
2022-12-22T07:04:21.907Z,9.98
2022-12-22T07:05:24.917Z,10.12
2022-12-22T07:06:26.425Z,10.10
2022-12-22T07:07:30.206Z,9.94
2022-12-22T07:08:32.634Z,10.12
2022-12-22T07:09:34.168Z,10.22
2022-12-22T07:10:54.507Z,10.20
2022-12-22T07:11:56.998Z,10.16
2022-12-22T07:13:18.541Z,10.09
2022-12-22T07:14:20.966Z,10.12
2022-12-22T07:15:22.556Z,9.98
2022-12-22T07:16:25.159Z,9.83
2022-12-22T07:17:26.749Z,9.85
2022-12-22T07:18:30.521Z,10.03
2022-12-22T07:19:32.149Z,10.13
2022-12-22T07:20:34.695Z,10.09
2022-12-22T07:21:37.195Z,9.96
2022-12-22T07:22:40.068Z,10.02
2022-12-22T07:23:42.927Z,10.04
2022-12-22T07:24:44.533Z,9.89
2022-12-22T07:25:47.101Z,10.05
2022-12-22T07:26:49.685Z,10.17
2022-12-22T07:27:54.088Z,10.09
2022-12-22T07:28:56.644Z,10.21
2022-12-22T07:29:58.272Z,10.24
2022-12-22T07:31:03.827Z,10.17
2022-12-22T07:32:06.744Z,10.28
2022-12-22T07:33:08.505Z,10.35
2022-12-22T07:34:11.123Z,10.21
2022-12-22T07:35:12.734Z,10.08
2022-12-22T07:36:18.938Z,10.20
2022-12-22T07:37:20.469Z,10.22
2022-12-22T07:38:24.419Z,10.44
2022-12-22T07:39:27.040Z,10.50
2022-12-22T07:40:28.777Z,10.35
2022-12-22T07:41:48.913Z,10.38
2022-12-22T07:42:51.524Z,10.34
2022-12-22T07:43:53.543Z,10.38
2022-12-22T07:44:56.133Z,10.43
2022-12-22T07:45:59.403Z,10.44
2022-12-22T07:47:04.678Z,10.49
2022-12-22T07:48:26.409Z,10.61
2022-12-22T07:49:46.410Z,10.84
2022-12-22T07:50:49.020Z,10.68
2022-12-22T07:51:52.200Z,10.57
2022-12-22T07:52:56.130Z,10.67
2022-12-22T07:53:59.055Z,10.60
2022-12-22T07:55:01.604Z,10.59
2022-12-22T07:56:04.648Z,10.62
2022-12-22T07:57:07.145Z,10.62
2022-12-22T07:58:08.767Z,10.75
2022-12-22T07:59:11.764Z,10.60
2022-12-22T08:00:16.094Z,10.60
2022-12-22T08:01:18.700Z,10.59
2022-12-22T08:02:21.503Z,10.38
2022-12-22T08:03:23.372Z,10.17
2022-12-22T08:04:26.119Z,10.19
2022-12-22T08:05:28.612Z,10.26
2022-12-22T08:06:32.713Z,10.39
2022-12-22T08:07:35.321Z,10.48
2022-12-22T08:08:37.013Z,10.57
2022-12-22T08:09:40.948Z,10.58
2022-12-22T08:10:45.615Z,10.14
2022-12-22T08:11:49.158Z,10.12
2022-12-22T08:12:51.929Z,10.19
2022-12-22T08:14:00.845Z,10.12
2022-12-22T08:15:04.039Z,10.27
2022-12-22T08:16:09.049Z,10.46
2022-12-22T08:17:11.698Z,10.57
2022-12-22T08:18:13.322Z,10.59
2022-12-22T08:19:16.029Z,10.53
2022-12-22T08:20:17.555Z,10.60
2022-12-22T08:21:20.069Z,10.52
2022-12-22T08:22:23.889Z,10.56
2022-12-22T08:23:26.434Z,10.42
2022-12-22T08:24:28.909Z,10.42
2022-12-22T08:25:33.439Z,10.38
2022-12-22T08:26:39.460Z,10.07
2022-12-22T08:27:45.006Z,10.15
2022-12-22T08:28:52.786Z,10.19
2022-12-22T08:29:58.158Z,10.08
2022-12-22T08:31:01.621Z,10.28
2022-12-22T08:32:14.229Z,10.30
2022-12-22T08:33:18.014Z,10.19
2022-12-22T08:34:20.591Z,10.22
2022-12-22T08:35:22.587Z,10.03
2022-12-22T08:36:25.718Z,9.99
2022-12-22T08:37:32.580Z,9.87
2022-12-22T08:38:34.964Z,10.03
2022-12-22T08:39:40.220Z,10.22
2022-12-22T08:40:46.263Z,10.04
2022-12-22T08:41:50.985Z,10.26
2022-12-22T08:42:56.845Z,10.20
2022-12-22T08:44:01.262Z,10.28
2022-12-22T08:45:04.273Z,10.35
2022-12-22T08:46:07.107Z,10.32
2022-12-22T08:47:14.814Z,10.39
2022-12-22T08:48:19.206Z,10.52
2022-12-22T08:49:20.789Z,10.65
2022-12-22T08:50:23.482Z,10.77
2022-12-22T08:51:25.096Z,10.76
2022-12-22T08:52:29.903Z,10.79
2022-12-22T08:54:14.333Z,10.89
2022-12-22T08:54:55.011Z,10.78
2022-12-22T08:55:58.912Z,10.79
2022-12-22T08:57:00.497Z,10.79
2022-12-22T08:58:03.017Z,10.93
2022-12-22T08:59:07.655Z,10.92
2022-12-22T09:00:13.287Z,10.95
2022-12-22T09:01:19.042Z,10.85
2022-12-22T09:02:22.255Z,10.98
2022-12-22T09:03:24.115Z,11.04
2022-12-22T09:04:28.360Z,10.78
2022-12-22T09:05:31.963Z,10.83
2022-12-22T09:06:41.151Z,10.87
2022-12-22T09:07:47.096Z,11.01
2022-12-22T09:08:48.880Z,11.06
2022-12-22T09:09:51.402Z,11.03
2022-12-22T09:10:52.987Z,10.98
2022-12-22T09:11:59.278Z,10.60
2022-12-22T09:13:00.915Z,10.62
2022-12-22T09:14:04.009Z,10.72
2022-12-22T09:15:08.849Z,10.48
2022-12-22T09:16:10.669Z,10.56
2022-12-22T09:17:13.439Z,10.60
2022-12-22T09:18:15.215Z,10.69
2022-12-22T09:19:18.354Z,10.83
2022-12-22T09:20:20.952Z,11.06
2022-12-22T09:21:24.634Z,11.15
2022-12-22T09:22:28.223Z,11.09
2022-12-22T09:23:31.427Z,10.96
2022-12-22T09:24:34.099Z,10.86
2022-12-22T09:25:35.675Z,10.82
2022-12-22T09:26:38.390Z,10.93
2022-12-22T09:27:41.458Z,11.08
2022-12-22T09:28:49.928Z,11.32
2022-12-22T09:29:53.914Z,11.35
2022-12-22T09:30:58.183Z,11.50
2022-12-22T09:32:00.696Z,11.50
2022-12-22T09:33:03.219Z,11.46
2022-12-22T09:34:05.007Z,11.59
2022-12-22T09:35:11.113Z,11.55
2022-12-22T09:36:14.631Z,11.43
2022-12-22T09:37:17.858Z,11.30
2022-12-22T09:38:20.920Z,11.21
2022-12-22T09:39:29.038Z,11.15
2022-12-22T09:40:32.919Z,11.34
2022-12-22T09:41:37.342Z,11.19
2022-12-22T09:42:39.887Z,11.40
2022-12-22T09:43:43.247Z,11.30
2022-12-22T09:44:48.038Z,11.41
2022-12-22T09:45:51.441Z,11.50
2022-12-22T09:46:56.193Z,11.49
2022-12-22T09:47:57.681Z,11.33
2022-12-22T09:49:00.208Z,11.35
2022-12-22T09:50:03.983Z,11.28
2022-12-22T09:51:12.453Z,11.25
2022-12-22T09:52:24.798Z,11.11
2022-12-22T09:53:27.275Z,11.31
2022-12-22T09:54:30.855Z,11.56
2022-12-22T09:55:41.099Z,11.66
2022-12-22T09:56:43.860Z,11.80
2022-12-22T09:57:46.363Z,11.74
2022-12-22T09:58:50.285Z,11.77
2022-12-22T09:59:53.132Z,11.64
2022-12-22T10:01:03.544Z,11.59
2022-12-22T10:02:18.295Z,11.24
2022-12-22T10:03:32.480Z,11.06
2022-12-22T10:04:53.342Z,11.16
2022-12-22T10:06:04.760Z,11.46
2022-12-22T10:07:20.375Z,11.35
2022-12-22T10:08:29.261Z,11.30
2022-12-22T10:09:49.774Z,11.11
2022-12-22T10:10:54.512Z,11.29
2022-12-22T10:11:58.241Z,11.28
2022-12-22T10:13:02.457Z,11.11
2022-12-22T10:14:06.303Z,11.16
2022-12-22T10:15:11.196Z,10.92
2022-12-22T10:16:20.755Z,11.08
2022-12-22T10:17:28.122Z,11.18
2022-12-22T10:18:30.961Z,11.31
2022-12-22T10:19:32.441Z,11.46
2022-12-22T10:20:35.061Z,11.42
2022-12-22T10:21:41.095Z,11.43
2022-12-22T10:22:50.559Z,11.54
2022-12-22T10:23:53.230Z,11.72
2022-12-22T10:24:55.967Z,11.71
2022-12-22T10:27:32.783Z,11.71
2022-12-22T10:28:39.067Z,11.50
2022-12-22T10:29:42.892Z,11.10
2022-12-22T10:30:45.433Z,11.16
2022-12-22T10:32:00.605Z,10.97
2022-12-22T10:33:04.740Z,10.99
2022-12-22T10:34:15.871Z,11.11
2022-12-22T10:35:17.674Z,11.34
2022-12-22T10:36:24.923Z,11.20
2022-12-22T10:37:38.086Z,11.19
2022-12-22T10:38:54.191Z,11.40
2022-12-22T10:39:56.966Z,11.40
2022-12-22T10:41:03.596Z,11.37
2022-12-22T10:42:13.334Z,11.50
2022-12-22T10:43:21.249Z,11.49
2022-12-22T10:44:27.505Z,11.63
2022-12-22T10:45:30.496Z,11.81
2022-12-22T10:46:37.760Z,11.96
2022-12-22T10:47:47.884Z,11.92
2022-12-22T10:48:50.563Z,12.15
2022-12-22T10:50:59.967Z,12.17
2022-12-22T10:52:13.305Z,12.35
2022-12-22T10:53:15.208Z,12.47
2022-12-22T10:54:30.263Z,12.64
2022-12-22T10:55:35.813Z,12.67
2022-12-22T10:56:37.544Z,12.72
2022-12-22T10:57:40.055Z,12.68
2022-12-22T10:58:48.647Z,12.45
2022-12-22T10:59:52.990Z,12.47
2022-12-22T11:01:05.090Z,12.26
2022-12-22T11:02:29.247Z,12.40
2022-12-22T11:03:32.988Z,12.49
2022-12-22T11:04:35.588Z,12.30
2022-12-22T11:05:38.148Z,12.58
2022-12-22T11:06:40.670Z,12.88
2022-12-22T11:07:47.911Z,12.83
2022-12-22T11:08:51.888Z,12.89
2022-12-22T11:09:54.545Z,12.99
2022-12-22T11:11:01.976Z,12.52
2022-12-22T11:12:14.308Z,12.66
2022-12-22T11:13:42.057Z,12.72
2022-12-22T11:14:52.998Z,13.02
2022-12-22T11:16:03.561Z,12.70
2022-12-22T11:17:13.498Z,12.74
2022-12-22T11:18:33.681Z,12.71
2022-12-22T11:19:48.159Z,12.68
2022-12-22T11:21:00.009Z,12.76
2022-12-22T11:22:13.001Z,12.93
2022-12-22T11:23:26.720Z,12.97
2022-12-22T11:24:39.665Z,13.06
2022-12-22T11:25:52.415Z,13.08
2022-12-22T11:27:05.138Z,13.38
2022-12-22T11:28:20.263Z,13.41
2022-12-22T11:29:52.985Z,13.57
2022-12-22T11:31:07.074Z,13.43
2022-12-22T11:32:27.986Z,13.54
2022-12-22T11:33:41.198Z,13.33
2022-12-22T11:34:56.737Z,13.19
2022-12-22T11:36:04.882Z,13.42
2022-12-22T11:37:15.592Z,13.47
2022-12-22T11:38:28.414Z,13.23
2022-12-22T11:39:41.304Z,13.48
2022-12-22T11:40:48.271Z,13.32
2022-12-22T11:42:03.697Z,13.24
2022-12-22T11:43:22.469Z,13.22
2022-12-22T11:44:48.364Z,13.21
2022-12-22T11:45:59.516Z,13.24
2022-12-22T11:47:08.202Z,13.00
2022-12-22T11:48:33.011Z,13.09
2022-12-22T11:50:00.872Z,13.26
2022-12-22T11:51:33.044Z,13.32
2022-12-22T11:52:53.418Z,13.17
2022-12-22T11:54:25.552Z,12.95
2022-12-22T11:55:35.732Z,13.10
2022-12-22T11:56:40.472Z,13.30
2022-12-22T11:57:56.361Z,13.58
2022-12-22T11:59:17.674Z,13.65
2022-12-22T12:00:20.845Z,13.87
2022-12-22T12:01:40.913Z,14.16
2022-12-22T12:03:05.811Z,14.21
2022-12-22T12:04:28.085Z,14.16
2022-12-22T12:05:55.286Z,14.07
2022-12-22T12:07:25.167Z,14.12
2022-12-22T12:08:39.764Z,13.79
2022-12-22T12:09:52.408Z,13.76
2022-12-22T12:11:02.224Z,13.69
2022-12-22T12:12:12.850Z,13.74
2022-12-22T12:13:34.726Z,13.60
2022-12-22T12:14:48.335Z,13.69
2022-12-22T12:15:56.414Z,13.61
2022-12-22T12:17:00.835Z,13.39
2022-12-22T12:18:26.149Z,13.12
2022-12-22T12:19:54.698Z,13.23
2022-12-22T12:21:21.302Z,13.13
2022-12-22T12:22:37.469Z,13.25
2022-12-22T12:24:03.419Z,13.43
2022-12-22T12:25:26.038Z,12.92
2022-12-22T12:26:32.153Z,12.95
2022-12-22T12:27:48.748Z,12.76
2022-12-22T12:29:06.185Z,12.88
2022-12-22T12:31:43.699Z,12.64
2022-12-22T12:32:50.805Z,12.73
2022-12-22T12:33:56.070Z,12.63
2022-12-22T12:35:06.155Z,12.67
2022-12-22T12:36:16.019Z,12.71
2022-12-22T12:37:26.443Z,12.86
2022-12-22T12:39:06.945Z,12.57
2022-12-22T12:40:22.910Z,12.31
2022-12-22T12:41:31.955Z,12.14
2022-12-22T12:42:38.528Z,12.01
2022-12-22T12:43:41.490Z,12.08
2022-12-22T12:44:44.321Z,12.24
2022-12-22T12:45:48.901Z,12.08
2022-12-22T12:47:06.317Z,11.95
2022-12-22T12:48:41.882Z,11.80
2022-12-22T12:50:31.845Z,11.61
2022-12-22T12:51:50.785Z,11.55
2022-12-22T12:53:14.834Z,11.57
2022-12-22T12:54:44.516Z,11.55
2022-12-22T12:56:09.548Z,11.50
2022-12-22T12:57:24.219Z,11.45
2022-12-22T12:58:55.060Z,11.42
2022-12-22T12:59:58.910Z,11.32
2022-12-22T13:01:02.156Z,11.42
2022-12-22T13:02:04.774Z,11.40
2022-12-22T13:03:20.006Z,11.41
2022-12-22T13:05:11.324Z,11.62
2022-12-22T13:06:53.296Z,11.60
2022-12-22T13:08:17.126Z,11.65
2022-12-22T13:10:48.145Z,11.70
2022-12-22T13:12:11.665Z,11.66
2022-12-22T13:13:29.540Z,11.84
2022-12-22T13:14:57.452Z,11.83
2022-12-22T13:16:27.072Z,11.62
2022-12-22T13:17:42.706Z,11.46
2022-12-22T13:18:50.881Z,11.60
2022-12-22T13:19:54.973Z,11.55
2022-12-22T13:21:18.846Z,11.30
2022-12-22T13:22:23.660Z,11.24
2022-12-22T13:23:29.460Z,11.32
2022-12-22T13:24:37.840Z,11.19
2022-12-22T13:25:49.401Z,11.14
2022-12-22T13:26:54.596Z,10.99
2022-12-22T13:27:57.949Z,11.12
2022-12-22T13:29:02.754Z,11.16
2022-12-22T13:30:11.212Z,11.11
2022-12-22T13:31:19.847Z,11.30
2022-12-22T13:32:26.755Z,11.27
2022-12-22T13:33:33.344Z,11.29
2022-12-22T13:34:57.627Z,11.22
2022-12-22T13:36:02.164Z,11.10
2022-12-22T13:37:15.732Z,11.14
2022-12-22T13:38:34.368Z,11.08
2022-12-22T13:39:37.975Z,11.10
2022-12-22T13:40:43.262Z,11.00
2022-12-22T13:41:47.814Z,11.19
2022-12-22T13:42:52.983Z,11.12
2022-12-22T13:44:04.659Z,11.08
2022-12-22T13:45:12.960Z,11.21
2022-12-22T13:46:15.657Z,11.25
2022-12-22T13:47:17.236Z,11.30
2022-12-22T13:48:21.908Z,11.18
2022-12-22T13:50:06.535Z,11.26
2022-12-22T13:50:54.653Z,11.43
2022-12-22T13:52:00.254Z,11.35
2022-12-22T13:53:09.450Z,11.38
2022-12-22T13:54:17.032Z,11.46
2022-12-22T13:55:24.725Z,11.56
2022-12-22T13:56:36.665Z,11.40
2022-12-22T13:57:39.488Z,11.39
2022-12-22T13:58:45.847Z,11.17
2022-12-22T13:59:50.223Z,11.17
2022-12-22T14:01:02.732Z,11.17
2022-12-22T14:02:18.511Z,11.43
2022-12-22T14:03:50.081Z,11.13
2022-12-22T14:04:47.855Z,11.35
2022-12-22T14:05:54.299Z,11.31
2022-12-22T14:07:10.456Z,11.42
2022-12-22T14:08:13.357Z,11.42
2022-12-22T14:09:18.669Z,11.30
2022-12-22T14:10:27.832Z,11.20
2022-12-22T14:11:32.307Z,11.12
2022-12-22T14:12:43.664Z,11.12
2022-12-22T14:13:47.659Z,10.99
2022-12-22T14:14:51.607Z,11.06
2022-12-22T14:16:02.005Z,11.00
2022-12-22T14:17:05.470Z,10.96
2022-12-22T14:18:07.311Z,10.98
2022-12-22T14:19:12.575Z,11.05
2022-12-22T14:20:20.583Z,11.10
2022-12-22T14:21:22.190Z,11.02
2022-12-22T14:22:28.168Z,11.02
2022-12-22T14:23:34.931Z,11.14
2022-12-22T14:24:45.618Z,11.15
2022-12-22T14:25:49.690Z,11.22
2022-12-22T14:26:52.310Z,11.10
2022-12-22T14:27:56.378Z,10.94
2022-12-22T14:28:58.867Z,11.08
2022-12-22T14:30:03.412Z,11.13
2022-12-22T14:31:08.124Z,11.18
2022-12-22T14:32:13.558Z,11.30
2022-12-22T14:33:18.441Z,11.34
2022-12-22T14:34:29.068Z,11.47
2022-12-22T14:35:31.654Z,11.54
2022-12-22T14:36:40.680Z,11.47
2022-12-22T14:37:45.602Z,11.69
2022-12-22T14:38:50.192Z,11.82
2022-12-22T14:39:56.581Z,11.70
2022-12-22T14:40:59.065Z,11.52
2022-12-22T14:42:03.622Z,11.51
2022-12-22T14:43:08.123Z,11.49
2022-12-22T14:44:20.874Z,11.48
2022-12-22T14:45:24.244Z,11.65
2022-12-22T14:46:26.030Z,11.86
2022-12-22T14:47:28.659Z,11.77
2022-12-22T14:48:33.428Z,11.78
2022-12-22T14:49:36.562Z,11.58
2022-12-22T14:50:40.413Z,11.49
2022-12-22T14:51:42.514Z,11.50
2022-12-22T14:52:49.283Z,11.40
2022-12-22T14:53:55.501Z,11.28
2022-12-22T14:55:00.082Z,11.26
2022-12-22T14:56:02.011Z,11.26
2022-12-22T14:57:15.688Z,11.17
2022-12-22T14:58:22.033Z,11.14
2022-12-22T14:59:26.571Z,11.00
2022-12-22T15:00:33.270Z,11.10
2022-12-22T15:01:34.895Z,11.18
2022-12-22T15:02:40.627Z,11.07
2022-12-22T15:03:44.444Z,11.07
2022-12-22T15:04:46.228Z,10.96
2022-12-22T15:05:49.067Z,10.89
2022-12-22T15:06:50.887Z,10.90
2022-12-22T15:08:10.520Z,11.04
2022-12-22T15:10:12.640Z,11.16
2022-12-22T15:10:53.181Z,10.95
2022-12-22T15:12:02.039Z,10.79
2022-12-22T15:13:07.215Z,10.84
2022-12-22T15:14:12.219Z,10.76
2022-12-22T15:15:17.259Z,10.75